map of ALN home
ALN - Airport
Location
City:  Alton/St. Louis, Illinois, United States
Name:St. Louis Regional
ICAO:KALN
IATA:ALN
FAA LID:ALN

Details
Type:Airport (Part 139 Class IV)
Use:Public/Civil
Latitude:3853'24"N (38.889917)
Longitude:9002'46"W (-90.045999)
Datum:WGS 1984
Elevation:543 ft (166 m)
Variation:1.68W (WMM2015 magnetic declination)
-0.08 annual change
Runways:2
Longest:8099 × 150 ft (2469 × 45.5 m), paved

Time
Time Zone:UTC-6 (DST-5)
Local Time:

Weather
METAR:KALN 150615Z AUTO 28004KT 10SM OVC031 M03/M06 A3011 RMK AO2 T10261059

Related Locations
Nearby:
Farthest:MQZ: 11005 mi / 17711 km
Margaret River [Margaret River Airport], WA, AU

Find:

   beyond  
but within

Other Information
Maps:
Delays:
NOTAMs:
Links:
Sources:

  
flag of United States
flag of Illinois
  

Airport Diagram

Airport diagram for ALN

Airport diagram PDF

Sectional Chart

Flight Planning
at skyvector.com

Satellite Image

Google Maps Satellite view

 

Copyright © 2004-2017 Karl L. Swartz. All rights reserved.
The Great Circle Mapper name and logo are trademarks of the Great Circle Mapper.
All other trademarks mentioned herein belong to their respective owners.
Please see credits for attibutions and further copyright information.

  Follow gcmap on Facebook Follow gcmap on Twitter Follow gcmap on Google+ GCmap on LinkedIn

hCard Microformat

Geo Microformat